Time;durP1;ratioP1;P1;durP2;ratioP2;P2;SDS_P1;SDS_P2;PMS_P1;PMS_P2;Temp;Humidity;BMP_temperature;BMP_pressure;BME280_temperature;BME280_humidity;BME280_pressure;Samples;Min_cycle;Max_cycle;Signal;HPM_P1;HPM_P2
2022/12/16 00:01:31;;;;;;;48.65;16.00;;;6.40;96.80;;;;;;5094018;28;20447;-58
2022/12/16 00:03:57;;;;;;;40.70;15.98;;;6.40;96.80;;;;;;5110906;28;20024;-58
2022/12/16 00:06:25;;;;;;;43.45;14.98;;;6.40;96.80;;;;;;5129340;28;20027;-58
2022/12/16 00:08:50;;;;;;;42.88;14.77;;;6.40;96.80;;;;;;5129162;28;20079;-57
2022/12/16 00:11:16;;;;;;;53.28;16.00;;;6.40;96.80;;;;;;5093589;28;20043;-58
2022/12/16 00:13:41;;;;;;;49.03;15.13;;;6.40;96.80;;;;;;5129125;28;20041;-58
2022/12/16 00:16:11;;;;;;;41.90;15.23;;;6.40;96.90;;;;;;5129335;28;20035;-58
2022/12/16 00:18:37;;;;;;;64.70;16.65;;;6.40;96.90;;;;;;5094151;28;20031;-58
2022/12/16 00:21:03;;;;;;;34.60;15.43;;;6.30;96.90;;;;;;5093952;28;20036;-58
2022/12/16 00:23:29;;;;;;;48.67;16.85;;;6.30;96.90;;;;;;5110818;28;20103;-58
2022/12/16 00:25:54;;;;;;;43.22;16.48;;;6.30;96.90;;;;;;5110704;28;20032;-58
2022/12/16 00:28:21;;;;;;;40.00;16.02;;;6.30;96.90;;;;;;5110515;28;20038;-58
2022/12/16 00:30:47;;;;;;;45.17;16.27;;;6.30;97.00;;;;;;5093312;28;20039;-58
2022/12/16 00:33:13;;;;;;;41.42;15.65;;;6.20;96.90;;;;;;5093602;28;20039;-57
2022/12/16 00:35:38;;;;;;;48.40;16.05;;;6.30;97.00;;;;;;5111064;28;20032;-58
2022/12/16 00:38:04;;;;;;;40.35;14.55;;;6.30;97.00;;;;;;5129100;28;20032;-58
2022/12/16 00:40:30;;;;;;;49.92;16.38;;;6.20;97.00;;;;;;5128693;28;20019;-58
2022/12/16 00:42:55;;;;;;;33.70;15.52;;;6.20;97.00;;;;;;5110589;28;20047;-58
2022/12/16 00:45:21;;;;;;;38.15;15.65;;;6.20;97.00;;;;;;5093499;28;20031;-58
2022/12/16 00:47:48;;;;;;;43.13;16.08;;;6.20;97.00;;;;;;5110568;28;20034;-58
2022/12/16 00:50:13;;;;;;;56.25;15.30;;;6.20;97.10;;;;;;5110003;28;20077;-57
2022/12/16 00:52:39;;;;;;;42.63;14.65;;;6.20;97.10;;;;;;5109687;28;20035;-57
2022/12/16 00:55:06;;;;;;;28.52;14.48;;;6.20;97.10;;;;;;5110206;28;20065;-58
2022/12/16 00:57:32;;;;;;;43.05;15.65;;;6.20;97.10;;;;;;5110400;28;20083;-58
2022/12/16 00:59:57;;;;;;;44.28;16.60;;;6.20;97.10;;;;;;5093353;28;20042;-58
2022/12/16 01:02:23;;;;;;;39.75;16.42;;;6.10;97.00;;;;;;5127285;28;20039;-58
2022/12/16 01:04:48;;;;;;;38.38;15.68;;;6.10;97.00;;;;;;5128241;28;20031;-58
2022/12/16 01:07:14;;;;;;;38.53;16.02;;;6.10;97.00;;;;;;5128284;28;20036;-58
2022/12/16 01:09:40;;;;;;;29.17;14.65;;;6.10;97.00;;;;;;5109575;28;20045;-58
2022/12/16 01:12:05;;;;;;;36.03;16.25;;;6.10;97.00;;;;;;5127914;28;20028;-58
2022/12/16 01:14:31;;;;;;;36.42;15.65;;;6.10;97.00;;;;;;5110897;28;20016;-58
2022/12/16 01:16:56;;;;;;;42.85;15.75;;;6.10;97.00;;;;;;5109832;28;20028;-58
2022/12/16 01:19:22;;;;;;;33.25;15.23;;;6.00;97.00;;;;;;5127876;28;20070;-58
2022/12/16 01:21:48;;;;;;;36.35;15.85;;;6.00;97.00;;;;;;5127800;28;20030;-58
2022/12/16 01:24:13;;;;;;;32.95;14.90;;;6.10;97.00;;;;;;5092343;28;20055;-58
2022/12/16 01:26:39;;;;;;;33.58;15.00;;;6.00;97.00;;;;;;5127640;28;20040;-59
2022/12/16 01:29:05;;;;;;;31.30;14.95;;;6.00;97.00;;;;;;5109309;28;20073;-58
2022/12/16 01:31:30;;;;;;;32.95;14.48;;;6.00;97.00;;;;;;5109172;28;20075;-58
2022/12/16 01:33:56;;;;;;;32.63;14.85;;;6.00;97.00;;;;;;5092123;28;20031;-58
2022/12/16 01:36:21;;;;;;;37.25;15.43;;;6.00;97.00;;;;;;5109076;28;20031;-58
2022/12/16 01:38:47;;;;;;;27.42;13.98;;;6.00;97.00;;;;;;5127499;28;20019;-58
2022/12/16 01:41:14;;;;;;;29.55;15.18;;;6.00;97.10;;;;;;5127513;28;20103;-58
2022/12/16 01:43:40;;;;;;;32.72;14.90;;;5.90;97.10;;;;;;5092361;28;20106;-58
2022/12/16 01:46:12;;;;;;;30.98;14.10;;;5.90;97.10;;;;;;5092282;28;20028;-58
2022/12/16 01:48:47;;;;;;;37.15;14.25;;;5.90;97.10;;;;;;5092097;28;20034;-58
2022/12/16 01:51:29;;;;;;;37.00;13.82;;;5.90;97.10;;;;;;5126942;28;20032;-58
2022/12/16 01:53:57;;;;;;;28.98;14.75;;;5.90;97.10;;;;;;5093903;28;20387;-58
2022/12/16 01:56:23;;;;;;;29.50;15.50;;;5.80;97.20;;;;;;5108618;28;20036;-58
2022/12/16 01:58:49;;;;;;;34.35;16.65;;;5.80;97.20;;;;;;5091708;28;20036;-58
2022/12/16 02:01:14;;;;;;;24.98;14.70;;;5.80;97.20;;;;;;5108753;28;20032;-59
2022/12/16 02:03:40;;;;;;;27.02;15.13;;;5.80;97.20;;;;;;5108710;28;20055;-58
2022/12/16 02:06:05;;;;;;;22.92;14.32;;;5.80;97.30;;;;;;5091858;28;20032;-58
2022/12/16 02:08:31;;;;;;;28.02;15.20;;;5.70;97.30;;;;;;5108385;28;20062;-58
2022/12/16 02:11:35;;;;;;;28.48;15.18;;;5.70;97.30;;;;;;5126830;28;20035;-58
2022/12/16 02:14:30;;;;;;;24.70;13.77;;;5.70;97.30;;;;;;5102605;28;20027;-58
2022/12/16 02:17:03;;;;;;;31.95;15.50;;;5.80;97.30;;;;;;5108470;28;20080;-57
2022/12/16 02:19:54;;;;;;;22.95;14.43;;;5.70;97.30;;;;;;5092015;28;20028;-58
2022/12/16 02:22:37;;;;;;;29.70;14.88;;;5.70;97.30;;;;;;5108416;28;20031;-58
2022/12/16 02:25:16;;;;;;;23.13;13.57;;;5.70;97.30;;;;;;5126472;28;20012;-58
2022/12/16 02:27:48;;;;;;;25.55;14.10;;;5.80;97.30;;;;;;5108732;28;20027;-58
2022/12/16 02:30:36;;;;;;;25.38;14.10;;;5.70;97.20;;;;;;5108755;28;20051;-58
2022/12/16 02:33:31;;;;;;;27.20;14.55;;;5.70;97.20;;;;;;5108615;28;20015;-59
2022/12/16 02:36:30;;;;;;;25.73;13.48;;;5.70;97.20;;;;;;5110633;28;20055;-58
2022/12/16 02:39:22;;;;;;;23.40;13.60;;;5.70;97.30;;;;;;5108065;28;20457;-58
2022/12/16 02:42:28;;;;;;;24.35;13.90;;;5.70;97.60;;;;;;5117950;28;20126;-58
2022/12/16 02:45:09;;;;;;;23.88;13.80;;;5.70;97.30;;;;;;5093550;28;20016;-59
2022/12/16 02:47:35;;;;;;;25.85;14.38;;;5.70;97.30;;;;;;5091793;28;20154;-58
2022/12/16 02:50:00;;;;;;;19.77;13.27;;;5.70;97.30;;;;;;5090982;28;20135;-59
2022/12/16 02:52:28;;;;;;;25.02;13.27;;;5.70;97.30;;;;;;5107580;28;20036;-59
2022/12/16 02:54:56;;;;;;;22.13;13.02;;;5.70;97.30;;;;;;5091070;28;20059;-59
2022/12/16 02:57:57;;;;;;;22.08;13.20;;;5.60;97.30;;;;;;5074210;28;20024;-58
2022/12/16 03:00:22;;;;;;;23.52;13.30;;;5.60;97.40;;;;;;5092580;28;20028;-58
2022/12/16 03:03:01;;;;;;;27.42;13.85;;;5.60;97.40;;;;;;5073810;28;20138;-59
2022/12/16 03:05:29;;;;;;;23.80;13.75;;;5.60;97.40;;;;;;5107591;28;20035;-58
2022/12/16 03:07:56;;;;;;;23.48;13.57;;;5.60;97.60;;;;;;5107510;28;20115;-58
2022/12/16 03:10:26;;;;;;;22.30;13.95;;;5.60;97.40;;;;;;5090711;28;20084;-59
2022/12/16 03:12:51;;;;;;;22.13;14.93;;;5.60;97.40;;;;;;5090835;28;20105;-58
2022/12/16 03:15:19;;;;;;;24.23;14.82;;;5.60;97.40;;;;;;5090222;28;20036;-58
2022/12/16 03:17:45;;;;;;;22.15;13.73;;;5.60;97.40;;;;;;5090486;28;20027;-58
2022/12/16 03:20:14;;;;;;;25.63;14.60;;;5.60;97.40;;;;;;5090616;28;20054;-58
2022/12/16 03:22:41;;;;;;;23.90;14.82;;;5.60;97.40;;;;;;5074010;28;20038;-58
2022/12/16 03:25:07;;;;;;;25.42;14.20;;;5.60;97.40;;;;;;5106945;28;20028;-58
2022/12/16 03:27:34;;;;;;;19.67;13.60;;;5.60;97.40;;;;;;5107388;28;20032;-58
2022/12/16 03:30:03;;;;;;;21.25;13.68;;;5.60;97.40;;;;;;5107030;28;20040;-58
2022/12/16 03:32:34;;;;;;;17.55;13.07;;;5.60;97.40;;;;;;5107139;28;20027;-58
2022/12/16 03:35:18;;;;;;;19.65;14.02;;;5.60;97.50;;;;;;5125490;28;20066;-58
2022/12/16 03:37:43;;;;;;;21.30;13.85;;;5.60;97.70;;;;;;5091435;28;20026;-58
2022/12/16 03:40:09;;;;;;;20.60;14.55;;;5.60;97.50;;;;;;5090022;28;20039;-58
2022/12/16 03:42:36;;;;;;;21.55;14.02;;;5.50;97.50;;;;;;5090239;28;20081;-58
2022/12/16 03:45:01;;;;;;;26.02;14.27;;;5.60;97.50;;;;;;5090220;28;20035;-58
2022/12/16 03:47:28;;;;;;;23.10;15.48;;;5.50;97.50;;;;;;5089997;28;20119;-58
2022/12/16 03:49:53;;;;;;;27.73;15.43;;;5.50;97.50;;;;;;5107099;28;20032;-58
2022/12/16 03:52:19;;;;;;;34.10;16.50;;;5.60;97.50;;;;;;5089983;28;20039;-58
2022/12/16 03:54:44;;;;;;;24.98;15.27;;;5.60;97.50;;;;;;5125333;28;20337;-59
2022/12/16 03:57:10;;;;;;;21.60;15.43;;;5.50;97.50;;;;;;5106814;28;20051;-58
2022/12/16 03:59:35;;;;;;;23.85;15.65;;;5.50;97.50;;;;;;5107077;28;20101;-58
2022/12/16 04:02:01;;;;;;;21.85;15.25;;;5.50;97.50;;;;;;5106916;28;20063;-59
2022/12/16 04:04:26;;;;;;;19.15;14.48;;;5.50;97.60;;;;;;5125172;28;20039;-59
2022/12/16 04:09:36;;;;;;;22.00;14.18;;;5.50;97.60;;;;;;5109599;28;20042;-59
2022/12/16 04:25:43;;;;;;;20.23;13.00;;;5.50;97.60;;;;;;5095235;28;20373;-59
2022/12/16 04:28:08;;;;;;;21.05;13.70;;;5.50;97.70;;;;;;5106537;28;20094;-59
2022/12/16 04:30:34;;;;;;;16.88;12.77;;;5.50;97.80;;;;;;5124777;28;20453;-59
